createdAt,value
2022-12-16T00:01:18.636Z,-2.58
2022-12-16T00:03:52.037Z,-2.57
2022-12-16T00:06:20.911Z,-2.55
2022-12-16T00:08:48.819Z,-2.53
2022-12-16T00:11:16.755Z,-2.53
2022-12-16T00:13:44.688Z,-2.46
2022-12-16T00:16:14.753Z,-2.51
2022-12-16T00:18:42.849Z,-2.47
2022-12-16T00:21:12.682Z,-2.47
2022-12-16T00:23:41.863Z,-2.47
2022-12-16T00:26:09.887Z,-2.49
2022-12-16T00:28:38.142Z,-2.47
2022-12-16T00:31:06.659Z,-2.47
2022-12-16T00:33:35.020Z,-2.44
2022-12-16T00:36:03.336Z,-2.45
2022-12-16T00:38:32.681Z,-2.44
2022-12-16T00:41:00.648Z,-2.45
2022-12-16T00:43:28.556Z,-2.44
2022-12-16T00:45:56.706Z,-2.40
2022-12-16T00:48:25.578Z,-2.35
2022-12-16T00:50:54.909Z,-2.35
2022-12-16T00:53:24.719Z,-2.34
2022-12-16T00:55:54.219Z,-2.31
2022-12-16T00:58:22.786Z,-2.32
2022-12-16T01:00:52.800Z,-2.33
2022-12-16T01:03:22.984Z,-2.34
2022-12-16T01:05:50.967Z,-2.34
2022-12-16T01:08:18.865Z,-2.30
2022-12-16T01:10:53.020Z,-2.29
2022-12-16T01:13:24.344Z,-2.28
2022-12-16T01:15:52.301Z,-2.31
2022-12-16T01:18:20.481Z,-2.31
2022-12-16T01:20:48.410Z,-2.30
2022-12-16T01:23:16.305Z,-2.29
2022-12-16T01:25:44.253Z,-2.22
2022-12-16T01:28:13.496Z,-2.17
2022-12-16T01:30:41.379Z,-2.20
2022-12-16T01:33:10.804Z,-2.22
2022-12-16T01:35:55.761Z,-2.22
2022-12-16T01:38:24.152Z,-2.22
2022-12-16T01:40:52.692Z,-2.21
2022-12-16T01:43:29.787Z,-2.23
2022-12-16T01:46:00.355Z,-2.23
2022-12-16T01:48:36.709Z,-2.26
2022-12-16T01:51:08.677Z,-2.25
2022-12-16T01:53:37.413Z,-2.23
2022-12-16T01:56:05.444Z,-2.21
2022-12-16T01:58:36.097Z,-2.23
2022-12-16T02:01:04.592Z,-2.22
2022-12-16T02:03:35.252Z,-2.22
2022-12-16T02:06:04.544Z,-2.17
2022-12-16T02:08:32.497Z,-2.21
2022-12-16T02:11:16.652Z,-2.30
2022-12-16T02:13:57.952Z,-2.31
2022-12-16T02:16:28.790Z,-2.30
2022-12-16T02:19:03.423Z,-2.27
2022-12-16T02:21:47.315Z,-2.29
2022-12-16T02:24:47.279Z,-2.22
2022-12-16T02:27:40.769Z,-2.27
2022-12-16T02:30:41.996Z,-2.25
2022-12-16T02:33:19.886Z,-2.22
2022-12-16T02:35:52.110Z,-2.25
2022-12-16T02:38:26.349Z,-2.31
2022-12-16T02:40:58.687Z,-2.32
2022-12-16T02:43:37.337Z,-2.36
2022-12-16T02:46:06.732Z,-2.38
2022-12-16T02:48:36.077Z,-2.42
2022-12-16T02:51:04.249Z,-2.44
2022-12-16T02:53:32.996Z,-2.43
2022-12-16T02:56:05.497Z,-2.43
2022-12-16T02:58:38.460Z,-2.44
2022-12-16T03:01:10.672Z,-2.42
2022-12-16T03:03:46.083Z,-2.37
2022-12-16T03:06:15.849Z,-2.37
2022-12-16T03:08:46.848Z,-2.42
2022-12-16T03:11:14.969Z,-2.52
2022-12-16T03:13:46.247Z,-2.63
2022-12-16T03:16:15.723Z,-2.58
2022-12-16T03:18:46.646Z,-2.56
2022-12-16T03:21:15.605Z,-2.54
2022-12-16T03:23:47.853Z,-2.68
2022-12-16T03:26:20.490Z,-2.78
2022-12-16T03:28:52.003Z,-2.79
2022-12-16T03:31:27.044Z,-2.80
2022-12-16T03:34:00.725Z,-2.83
2022-12-16T03:36:30.887Z,-2.87
2022-12-16T03:38:58.800Z,-2.96
2022-12-16T03:41:27.216Z,-3.01
2022-12-16T03:43:55.335Z,-2.96
2022-12-16T03:46:23.272Z,-3.05
2022-12-16T03:48:52.396Z,-2.97
2022-12-16T03:51:21.855Z,-2.92
2022-12-16T03:53:49.892Z,-3.00
2022-12-16T03:56:17.995Z,-3.06
2022-12-16T03:58:47.046Z,-3.02
2022-12-16T04:01:15.642Z,-3.04
2022-12-16T04:03:43.674Z,-3.22
2022-12-16T04:06:11.743Z,-3.31
2022-12-16T04:08:41.020Z,-3.31
2022-12-16T04:11:27.506Z,-3.07
2022-12-16T04:14:12.846Z,-3.09
2022-12-16T04:16:59.453Z,-3.05
2022-12-16T04:19:49.090Z,-3.15
2022-12-16T04:22:38.005Z,-3.44
2022-12-16T04:25:10.217Z,-3.37
2022-12-16T04:27:38.116Z,-3.28
2022-12-16T04:30:23.095Z,-3.35
2022-12-16T04:33:19.689Z,-3.29
2022-12-16T04:36:04.972Z,-3.30
2022-12-16T04:38:50.336Z,-3.50
2022-12-16T04:41:37.280Z,-3.45
2022-12-16T04:44:23.176Z,-3.28
2022-12-16T04:47:08.457Z,-3.23
2022-12-16T04:49:53.747Z,-3.67
2022-12-16T04:52:39.204Z,-3.99
2022-12-16T04:55:25.638Z,-4.04
2022-12-16T04:58:13.525Z,-3.89
2022-12-16T05:00:59.446Z,-3.77
2022-12-16T05:03:44.717Z,-3.97
2022-12-16T05:06:30.274Z,-4.07
2022-12-16T05:09:15.647Z,-3.87
2022-12-16T05:12:00.849Z,-3.66
2022-12-16T05:14:47.864Z,-3.60
2022-12-16T05:17:33.740Z,-3.70
2022-12-16T05:20:18.999Z,-3.75
2022-12-16T05:23:04.311Z,-3.91
2022-12-16T05:25:49.594Z,-3.72
2022-12-16T05:28:35.166Z,-3.62
2022-12-16T05:31:22.125Z,-3.72
2022-12-16T05:34:07.147Z,-3.81
2022-12-16T05:36:52.617Z,-3.87
2022-12-16T05:39:37.615Z,-4.00
2022-12-16T05:42:22.936Z,-4.13
2022-12-16T05:45:08.141Z,-4.49
2022-12-16T05:47:55.358Z,-4.42
2022-12-16T05:50:55.633Z,-4.40
2022-12-16T05:53:41.184Z,-4.27
2022-12-16T05:56:26.356Z,-4.65
2022-12-16T05:59:11.732Z,-4.44
2022-12-16T06:01:57.310Z,-4.19
2022-12-16T06:04:44.280Z,-4.19
2022-12-16T06:07:29.603Z,-4.39
2022-12-16T06:10:15.173Z,-4.22
2022-12-16T06:13:00.570Z,-3.99
2022-12-16T06:15:45.913Z,-4.19
2022-12-16T06:18:31.240Z,-4.43
2022-12-16T06:21:17.867Z,-4.42
2022-12-16T06:24:03.272Z,-4.18
2022-12-16T06:26:49.155Z,-4.07
2022-12-16T06:29:34.212Z,-4.10
2022-12-16T06:32:19.735Z,-3.90
2022-12-16T06:35:05.084Z,-4.04
2022-12-16T06:37:53.930Z,-4.65
2022-12-16T06:40:39.374Z,-4.30
2022-12-16T06:43:24.652Z,-4.15
2022-12-16T06:46:10.063Z,-4.66
2022-12-16T06:49:00.718Z,-4.59
2022-12-16T06:51:48.749Z,-4.33
2022-12-16T06:54:35.508Z,-4.49
2022-12-16T06:57:20.976Z,-4.48
2022-12-16T07:00:06.301Z,-4.40
2022-12-16T07:02:51.715Z,-4.53
2022-12-16T07:05:36.959Z,-5.01
2022-12-16T07:08:22.219Z,-5.44
2022-12-16T07:11:16.708Z,-5.75
2022-12-16T07:14:02.535Z,-5.52
2022-12-16T07:16:47.995Z,-4.99
2022-12-16T07:19:33.139Z,-5.23
2022-12-16T07:22:18.443Z,-5.46
2022-12-16T07:25:03.783Z,-5.45
2022-12-16T07:27:50.707Z,-5.00
2022-12-16T07:30:35.990Z,-4.83
2022-12-16T07:33:21.355Z,-5.02
2022-12-16T07:36:06.845Z,-4.92
2022-12-16T07:38:52.124Z,-4.91
2022-12-16T07:41:37.404Z,-4.86
2022-12-16T07:44:24.379Z,-4.80
2022-12-16T07:47:09.826Z,-4.78
2022-12-16T07:49:55.500Z,-4.61
2022-12-16T07:52:40.949Z,-4.49
2022-12-16T07:55:26.850Z,-4.53
2022-12-16T07:58:12.299Z,-4.49
2022-12-16T08:00:58.939Z,-4.43
2022-12-16T08:03:44.227Z,-4.36
2022-12-16T08:06:29.396Z,-4.28
2022-12-16T08:09:14.604Z,-4.21
2022-12-16T08:12:00.013Z,-4.17
2022-12-16T08:14:56.927Z,-4.14
2022-12-16T08:17:43.770Z,-4.36
2022-12-16T08:20:29.717Z,-4.41
2022-12-16T08:23:11.494Z,-4.48
2022-12-16T08:26:11.424Z,-4.55
2022-12-16T08:29:02.061Z,-4.28
2022-12-16T08:31:59.073Z,-4.20
2022-12-16T08:34:46.088Z,-4.30
2022-12-16T08:37:31.477Z,-4.39
2022-12-16T08:40:34.721Z,-4.33
2022-12-16T08:43:21.470Z,-4.14
2022-12-16T08:46:07.065Z,-4.10
2022-12-16T08:48:52.223Z,-4.09
2022-12-16T08:51:44.566Z,-3.97
2022-12-16T08:54:30.001Z,-3.89
2022-12-16T08:57:15.169Z,-3.84
2022-12-16T08:59:56.953Z,-3.84
2022-12-16T09:02:42.701Z,-3.75
2022-12-16T09:05:28.216Z,-3.76
2022-12-16T09:08:18.794Z,-3.76
2022-12-16T09:11:04.362Z,-3.71
2022-12-16T09:13:49.774Z,-3.72
2022-12-16T09:16:35.182Z,-3.63
2022-12-16T09:19:20.484Z,-3.56
2022-12-16T09:22:05.965Z,-3.58
2022-12-16T09:24:52.921Z,-3.49
2022-12-16T09:27:38.317Z,-3.43
2022-12-16T09:30:24.556Z,-3.39
2022-12-16T09:33:09.858Z,-3.34
2022-12-16T09:35:55.459Z,-3.33
2022-12-16T09:38:40.610Z,-3.27
2022-12-16T09:41:44.710Z,-3.26
2022-12-16T09:44:37.768Z,-3.20
2022-12-16T09:47:32.168Z,-3.20
2022-12-16T09:50:19.260Z,-3.12
2022-12-16T09:53:09.327Z,-3.06
2022-12-16T09:55:57.755Z,-3.08
2022-12-16T09:58:48.252Z,-3.03
2022-12-16T10:01:34.245Z,-3.04
2022-12-16T10:04:20.085Z,-3.01
2022-12-16T10:07:06.766Z,-2.96
2022-12-16T10:09:59.191Z,-2.93
2022-12-16T10:12:49.025Z,-2.88
2022-12-16T10:15:45.908Z,-2.80
2022-12-16T10:18:42.732Z,-2.66
2022-12-16T10:21:30.213Z,-2.70
2022-12-16T10:24:20.728Z,-2.71
2022-12-16T10:27:10.626Z,-2.70
2022-12-16T10:29:58.498Z,-2.54
2022-12-16T10:32:49.549Z,-2.52
2022-12-16T10:35:39.521Z,-2.50
2022-12-16T10:38:29.200Z,-2.51
2022-12-16T10:41:15.005Z,-2.50
2022-12-16T10:44:03.887Z,-2.37
2022-12-16T10:46:52.793Z,-2.34
2022-12-16T10:49:40.234Z,-2.30
2022-12-16T10:52:25.820Z,-2.35
2022-12-16T10:55:18.424Z,-2.31
2022-12-16T10:58:14.182Z,-2.30
2022-12-16T11:01:03.749Z,-2.27
2022-12-16T11:03:50.655Z,-2.28
2022-12-16T11:06:42.105Z,-2.23
2022-12-16T11:09:35.025Z,-2.19
2022-12-16T11:12:40.127Z,-2.16
2022-12-16T11:15:43.409Z,-2.04
2022-12-16T11:18:30.812Z,-1.98
2022-12-16T11:21:25.294Z,-1.88
2022-12-16T11:24:24.513Z,-1.86
2022-12-16T11:27:12.908Z,-1.88
2022-12-16T11:30:12.184Z,-1.79
2022-12-16T11:32:59.615Z,-1.71
2022-12-16T11:35:46.536Z,-1.67
2022-12-16T11:38:37.745Z,-1.66
2022-12-16T11:41:25.867Z,-1.71
2022-12-16T11:44:11.559Z,-1.73
2022-12-16T11:46:57.214Z,-1.68
2022-12-16T11:49:45.984Z,-1.62
2022-12-16T11:52:45.826Z,-1.59
2022-12-16T11:58:49.834Z,-1.59
2022-12-16T12:01:44.915Z,-1.58
2022-12-16T12:04:31.448Z,-1.56
2022-12-16T12:07:44.274Z,-1.51
2022-12-16T12:10:42.116Z,-1.50
2022-12-16T12:13:46.009Z,-1.47
2022-12-16T12:16:38.674Z,-1.42
2022-12-16T12:19:29.081Z,-1.36
2022-12-16T12:22:17.695Z,-1.35
2022-12-16T12:25:08.218Z,-1.34
2022-12-16T12:27:59.135Z,-1.34
2022-12-16T12:30:59.120Z,-1.33
2022-12-16T12:33:53.706Z,-1.28
2022-12-16T12:36:48.650Z,-1.27
2022-12-16T12:39:39.994Z,-1.23
2022-12-16T12:42:33.971Z,-1.23
2022-12-16T12:45:32.633Z,-1.22
2022-12-16T12:48:19.962Z,-1.16
2022-12-16T12:51:12.605Z,-1.12
2022-12-16T12:54:04.725Z,-1.13
2022-12-16T12:56:59.737Z,-1.10
2022-12-16T12:59:49.732Z,-1.09
2022-12-16T13:02:38.291Z,-1.07
2022-12-16T13:05:24.879Z,-1.04
2022-12-16T13:08:11.844Z,-1.00
2022-12-16T13:10:57.692Z,-0.97
2022-12-16T13:13:51.999Z,-0.96
2022-12-16T13:17:23.689Z,-0.93
2022-12-16T13:20:15.708Z,-0.91
2022-12-16T13:23:03.297Z,-0.95
2022-12-16T13:25:57.131Z,-0.95
2022-12-16T13:28:45.048Z,-0.92
2022-12-16T13:31:30.486Z,-0.95
2022-12-16T13:34:19.763Z,-0.94
2022-12-16T13:37:12.073Z,-0.97
2022-12-16T13:39:57.990Z,-0.99
2022-12-16T13:43:09.676Z,-0.99
2022-12-16T13:45:58.246Z,-1.05
2022-12-16T13:48:50.058Z,-1.13
2022-12-16T13:52:11.802Z,-1.14
2022-12-16T13:55:00.813Z,-1.10
2022-12-16T13:57:49.167Z,-1.16
2022-12-16T14:00:39.815Z,-1.18
2022-12-16T14:03:30.158Z,-1.27
2022-12-16T14:06:15.868Z,-1.17
2022-12-16T14:09:01.220Z,-1.16
2022-12-16T14:11:53.530Z,-1.22
2022-12-16T14:14:42.792Z,-1.27
2022-12-16T14:17:33.333Z,-1.34
2022-12-16T14:20:22.297Z,-1.37
2022-12-16T14:23:39.355Z,-1.44
2022-12-16T14:26:20.129Z,-1.41
2022-12-16T14:29:06.592Z,-1.43
2022-12-16T14:31:55.738Z,-1.54
2022-12-16T14:34:43.660Z,-1.73
2022-12-16T14:37:37.398Z,-1.87
2022-12-16T14:40:26.509Z,-1.99
2022-12-16T14:43:13.263Z,-2.00
2022-12-16T14:46:07.311Z,-1.93
2022-12-16T14:48:53.877Z,-1.81
2022-12-16T14:51:48.056Z,-1.86
2022-12-16T14:54:36.883Z,-2.15
2022-12-16T14:57:23.180Z,-2.16
2022-12-16T15:00:19.030Z,-2.02
2022-12-16T15:03:06.258Z,-2.11
2022-12-16T15:05:53.353Z,-2.37
2022-12-16T15:08:40.449Z,-2.41
2022-12-16T15:11:29.327Z,-2.25
2022-12-16T15:14:16.692Z,-2.39
2022-12-16T15:17:03.289Z,-2.45
2022-12-16T15:19:50.933Z,-2.53
2022-12-16T15:22:36.246Z,-2.65
2022-12-16T15:25:23.855Z,-2.84
2022-12-16T15:28:13.704Z,-3.03
2022-12-16T15:30:59.761Z,-3.14
2022-12-16T15:33:46.969Z,-3.02
2022-12-16T15:36:41.868Z,-2.73
2022-12-16T15:39:37.143Z,-2.82
2022-12-16T15:42:24.108Z,-2.75
2022-12-16T15:45:10.553Z,-2.58
2022-12-16T15:47:57.309Z,-2.61
2022-12-16T15:50:44.108Z,-2.66
2022-12-16T15:53:46.874Z,-2.76
2022-12-16T15:56:36.761Z,-2.72
2022-12-16T15:59:41.967Z,-2.83
2022-12-16T16:02:34.610Z,-2.90
2022-12-16T16:05:31.849Z,-2.93
2022-12-16T16:08:17.042Z,-2.93
2022-12-16T16:11:03.107Z,-3.01
2022-12-16T16:13:48.556Z,-3.16
2022-12-16T16:16:35.483Z,-3.00
2022-12-16T16:19:21.112Z,-3.14
2022-12-16T16:22:06.542Z,-3.29
2022-12-16T16:24:51.939Z,-3.27
2022-12-16T16:27:37.371Z,-3.14
2022-12-16T16:30:23.639Z,-3.01
2022-12-16T16:33:10.635Z,-3.18
2022-12-16T16:35:56.137Z,-3.37
2022-12-16T16:38:41.436Z,-3.34
2022-12-16T16:41:32.271Z,-3.40
2022-12-16T16:44:29.117Z,-3.53
2022-12-16T16:47:15.612Z,-3.37
2022-12-16T16:50:04.968Z,-3.44
2022-12-16T16:52:50.837Z,-3.48
2022-12-16T16:55:38.700Z,-3.47
2022-12-16T16:58:25.500Z,-3.41
2022-12-16T17:01:11.009Z,-3.40
2022-12-16T17:03:56.450Z,-3.26
2022-12-16T17:06:43.288Z,-3.16
2022-12-16T17:09:28.747Z,-3.23
2022-12-16T17:12:14.124Z,-3.21
2022-12-16T17:14:55.931Z,-3.16
2022-12-16T17:17:41.276Z,-3.06
2022-12-16T17:20:28.226Z,-2.93
2022-12-16T17:23:15.094Z,-3.08
2022-12-16T17:26:00.598Z,-3.23
2022-12-16T17:28:45.998Z,-3.03
2022-12-16T17:31:31.350Z,-2.97
2022-12-16T17:34:16.567Z,-3.03
2022-12-16T17:37:04.204Z,-2.98
2022-12-16T17:39:51.175Z,-3.22
2022-12-16T17:42:37.292Z,-3.33
2022-12-16T17:45:25.102Z,-3.34
2022-12-16T17:48:10.633Z,-3.12
2022-12-16T17:50:56.102Z,-3.17
2022-12-16T17:53:41.438Z,-3.30
2022-12-16T17:56:28.490Z,-3.19
2022-12-16T17:59:13.707Z,-2.88
2022-12-16T18:01:58.919Z,-2.98
2022-12-16T18:04:44.336Z,-2.89
2022-12-16T18:07:29.390Z,-2.93
2022-12-16T18:10:14.824Z,-3.01
2022-12-16T18:13:01.640Z,-3.17
2022-12-16T18:15:47.059Z,-3.21
2022-12-16T18:18:32.757Z,-3.11
2022-12-16T18:21:27.735Z,-3.01
2022-12-16T18:24:13.136Z,-3.52
2022-12-16T18:26:58.526Z,-3.52
2022-12-16T18:29:45.712Z,-3.81
2022-12-16T18:32:35.023Z,-3.38
2022-12-16T18:35:32.307Z,-3.60
2022-12-16T18:38:17.907Z,-3.27
2022-12-16T18:41:03.260Z,-3.54
2022-12-16T18:43:48.654Z,-3.08
2022-12-16T18:46:35.664Z,-3.13
2022-12-16T18:49:21.182Z,-3.14
2022-12-16T18:52:06.642Z,-2.98
2022-12-16T18:54:52.036Z,-3.02
2022-12-16T18:57:39.830Z,-3.11
2022-12-16T19:00:27.120Z,-3.13
2022-12-16T19:03:13.857Z,-3.14
2022-12-16T19:05:59.136Z,-3.20
2022-12-16T19:08:44.515Z,-3.27
2022-12-16T19:11:29.909Z,-3.39
2022-12-16T19:14:15.786Z,-3.53
2022-12-16T19:17:01.017Z,-3.32
2022-12-16T19:19:47.617Z,-3.72
2022-12-16T19:22:33.207Z,-3.61
2022-12-16T19:25:18.621Z,-3.67
2022-12-16T19:28:04.148Z,-3.84
2022-12-16T19:30:49.414Z,-3.98
2022-12-16T19:33:46.368Z,-3.91
2022-12-16T19:36:32.893Z,-3.72
2022-12-16T19:39:18.301Z,-3.78
2022-12-16T19:42:03.675Z,-3.48
2022-12-16T19:44:49.037Z,-3.37
2022-12-16T19:47:34.458Z,-3.50
2022-12-16T19:50:19.732Z,-3.80
2022-12-16T19:53:06.787Z,-3.83
2022-12-16T19:55:52.173Z,-3.72
2022-12-16T19:58:38.842Z,-3.56
2022-12-16T20:04:29.724Z,-3.43
2022-12-16T20:07:17.812Z,-3.62
2022-12-16T20:10:08.520Z,-3.54
2022-12-16T20:12:56.181Z,-3.28
2022-12-16T20:15:41.633Z,-3.19
2022-12-16T20:18:26.903Z,-3.16
2022-12-16T20:21:12.413Z,-3.26
2022-12-16T20:23:57.838Z,-3.38
2022-12-16T20:26:44.776Z,-3.36
2022-12-16T20:29:30.362Z,-3.49
2022-12-16T20:32:15.706Z,-3.55
2022-12-16T20:35:01.073Z,-3.59
2022-12-16T20:37:46.456Z,-3.55
2022-12-16T20:40:31.939Z,-3.66
2022-12-16T20:43:18.936Z,-3.66
2022-12-16T20:46:04.245Z,-3.62
2022-12-16T20:48:49.551Z,-3.65
2022-12-16T20:51:34.937Z,-3.66
2022-12-16T20:54:20.315Z,-3.61
2022-12-16T20:57:08.292Z,-3.56
2022-12-16T20:59:59.149Z,-3.72
2022-12-16T21:02:44.467Z,-3.73
2022-12-16T21:05:29.735Z,-3.71
2022-12-16T21:08:15.036Z,-3.61
2022-12-16T21:11:00.453Z,-3.45
2022-12-16T21:13:46.311Z,-3.29
2022-12-16T21:14:28.641Z,-3.26
2022-12-16T21:16:33.500Z,-3.19
2022-12-16T21:19:18.796Z,-3.08
2022-12-16T21:22:04.181Z,-3.30
2022-12-16T21:24:49.611Z,-3.45
2022-12-16T21:27:34.860Z,-3.53
2022-12-16T21:30:20.211Z,-3.55
2022-12-16T21:33:08.501Z,-3.35
2022-12-16T21:35:54.002Z,-3.26
2022-12-16T21:38:41.181Z,-3.19
2022-12-16T21:41:26.589Z,-3.24
2022-12-16T21:44:12.030Z,-3.27
2022-12-16T21:46:58.325Z,-3.41
2022-12-16T21:49:45.287Z,-3.48
2022-12-16T21:52:32.968Z,-3.43
2022-12-16T21:55:18.445Z,-3.49
2022-12-16T21:58:09.414Z,-3.52
2022-12-16T22:00:58.763Z,-3.38
2022-12-16T22:03:45.813Z,-3.45
2022-12-16T22:06:32.818Z,-3.40
2022-12-16T22:09:18.244Z,-3.53
2022-12-16T22:12:03.684Z,-3.84
2022-12-16T22:14:57.465Z,-4.03
2022-12-16T22:17:42.891Z,-4.08
2022-12-16T22:20:29.171Z,-4.16
2022-12-16T22:23:16.109Z,-4.14
2022-12-16T22:26:01.492Z,-4.34
2022-12-16T22:28:47.060Z,-4.29
2022-12-16T22:31:32.456Z,-4.48
2022-12-16T22:34:19.249Z,-4.43
2022-12-16T22:37:04.631Z,-4.47
2022-12-16T22:39:51.609Z,-4.44
2022-12-16T22:42:37.015Z,-4.32
2022-12-16T22:45:22.672Z,-4.46
2022-12-16T22:48:08.107Z,-4.39
2022-12-16T22:50:53.619Z,-4.23
2022-12-16T22:53:41.942Z,-4.29
2022-12-16T22:56:28.964Z,-4.22
2022-12-16T22:59:14.612Z,-4.40
2022-12-16T23:02:00.047Z,-4.47
2022-12-16T23:04:45.387Z,-4.33
2022-12-16T23:07:30.552Z,-4.11
2022-12-16T23:10:15.968Z,-4.03
2022-12-16T23:13:02.954Z,-4.30
2022-12-16T23:15:48.055Z,-4.47
2022-12-16T23:18:33.326Z,-4.55
2022-12-16T23:21:18.506Z,-4.61
2022-12-16T23:24:03.901Z,-4.61
2022-12-16T23:26:49.459Z,-4.51
2022-12-16T23:29:36.389Z,-4.30
2022-12-16T23:32:21.580Z,-4.39
2022-12-16T23:35:06.827Z,-4.53
2022-12-16T23:37:52.328Z,-4.65
2022-12-16T23:40:37.768Z,-4.83
2022-12-16T23:43:23.133Z,-4.83
2022-12-16T23:46:10.098Z,-4.82
2022-12-16T23:48:55.128Z,-4.82
2022-12-16T23:51:40.885Z,-4.75
2022-12-16T23:54:26.373Z,-4.86
2022-12-16T23:57:11.717Z,-4.95
2022-12-16T23:59:57.112Z,-4.97
